Time;durP1;ratioP1;P1;durP2;ratioP2;P2;SDS_P1;SDS_P2;PMS_P1;PMS_P2;Temp;Humidity;BMP_temperature;BMP_pressure;BME280_temperature;BME280_humidity;BME280_pressure;Samples;Min_cycle;Max_cycle;Signal;HPM_P1;HPM_P2
2021/04/09 00:00:25;;;;;;;9.05;7.35;;;;;;;3.63;62.21;101064.64;1774863;79;21685;-43
2021/04/09 00:02:56;;;;;;;9.88;7.75;;;;;;;3.61;62.33;101071.25;1773058;80;21169;-42
2021/04/09 00:05:23;;;;;;;12.03;8.18;;;;;;;3.60;62.45;101072.59;1766586;79;21134;-45
2021/04/09 00:07:54;;;;;;;9.90;7.28;;;;;;;3.59;62.64;101069.55;1775514;79;21129;-41
2021/04/09 00:10:25;;;;;;;9.93;7.92;;;;;;;3.57;62.69;101066.92;1769455;79;21170;-46
2021/04/09 00:12:53;;;;;;;10.32;7.33;;;;;;;3.55;62.77;101071.36;1777461;80;21138;-41
2021/04/09 00:15:21;;;;;;;9.88;7.42;;;;;;;3.51;62.98;101076.30;1775940;79;21130;-44
2021/04/09 00:17:52;;;;;;;10.98;8.25;;;;;;;3.49;63.14;101079.86;1770975;79;21110;-41
2021/04/09 00:20:23;;;;;;;11.38;8.65;;;;;;;3.46;63.35;101086.06;1763821;79;21146;-45
2021/04/09 00:22:51;;;;;;;10.80;7.85;;;;;;;3.43;63.38;101084.36;1763454;79;21108;-43
2021/04/09 00:25:20;;;;;;;11.00;8.45;;;;;;;3.41;63.36;101086.15;1764340;79;21146;-45
2021/04/09 00:27:48;;;;;;;11.40;8.00;;;;;;;3.37;63.43;101088.87;1762202;80;21185;-45
2021/04/09 00:30:24;;;;;;;11.18;8.10;;;;;;;3.35;63.54;101093.30;1767069;80;21645;-41
2021/04/09 00:32:52;;;;;;;10.43;7.80;;;;;;;3.33;63.56;101097.30;1768831;79;21134;-43
2021/04/09 00:35:20;;;;;;;12.37;7.67;;;;;;;3.30;63.60;101094.73;1769631;79;21146;-42
2021/04/09 00:37:48;;;;;;;10.03;7.72;;;;;;;3.30;63.71;101096.47;1760596;80;21178;-43
2021/04/09 00:40:16;;;;;;;10.58;7.72;;;;;;;3.28;63.76;101099.16;1768527;79;21130;-40
2021/04/09 00:42:45;;;;;;;10.75;8.08;;;;;;;3.26;63.85;101099.62;1766428;80;21126;-54
2021/04/09 00:45:14;;;;;;;10.93;8.05;;;;;;;3.26;63.96;101106.22;1770292;80;21150;-43
2021/04/09 00:47:44;;;;;;;11.93;7.72;;;;;;;3.25;64.03;101105.35;1763075;80;21126;-40
2021/04/09 00:50:13;;;;;;;10.80;8.58;;;;;;;3.25;64.16;101109.73;1760310;80;21145;-41
2021/04/09 00:52:43;;;;;;;13.35;8.35;;;;;;;3.23;64.24;101113.73;1769026;80;21154;-42
2021/04/09 00:55:12;;;;;;;10.28;8.15;;;;;;;3.23;64.35;101113.73;1702183;82;22059;-41
2021/04/09 00:57:39;;;;;;;12.65;8.48;;;;;;;3.23;64.40;101110.23;1770473;80;21114;-41
2021/04/09 01:00:10;;;;;;;9.08;7.35;;;;;;;3.21;64.37;101111.56;1762920;80;21150;-40
2021/04/09 01:02:38;;;;;;;11.35;7.62;;;;;;;3.20;64.28;101118.17;1766527;80;21134;-42
2021/04/09 01:05:09;;;;;;;12.33;8.05;;;;;;;3.17;64.27;101115.14;1699995;83;21154;-45
2021/04/09 01:07:40;;;;;;;12.00;8.05;;;;;;;3.15;64.40;101116.07;1761199;79;21122;-42
2021/04/09 01:10:13;;;;;;;8.75;7.22;;;;;;;3.13;64.32;101120.07;1747914;80;21130;-41
2021/04/09 01:12:41;;;;;;;11.78;8.58;;;;;;;3.10;64.26;101121.45;1762062;80;21134;-41
2021/04/09 01:15:10;;;;;;;8.83;7.15;;;;;;;3.06;64.31;101121.52;1760212;80;21130;-42
2021/04/09 01:18:03;;;;;;;10.32;7.90;;;;;;;3.04;64.37;101127.67;1749128;80;21115;-41
2021/04/09 01:21:01;;;;;;;10.58;7.83;;;;;;;3.01;64.44;101131.69;1759233;80;21130;-42
2021/04/09 01:23:52;;;;;;;10.88;8.35;;;;;;;3.02;64.53;101133.86;1766304;80;21114;-41
2021/04/09 01:26:51;;;;;;;9.80;6.85;;;;;;;3.03;64.58;101135.63;1680840;83;21708;-41
2021/04/09 01:29:59;;;;;;;11.73;7.83;;;;;;;3.01;64.57;101136.09;1680167;83;21175;-45
2021/04/09 01:32:52;;;;;;;13.35;7.40;;;;;;;3.04;64.67;101138.21;1798972;78;23108;-41
2021/04/09 01:35:20;;;;;;;10.40;7.83;;;;;;;3.02;64.68;101143.09;1785211;79;21172;-39
2021/04/09 01:38:04;;;;;;;12.28;8.18;;;;;;;3.02;64.69;101139.13;1741317;79;21162;-41
2021/04/09 01:40:40;;;;;;;11.33;7.85;;;;;;;3.03;64.66;101143.53;1769264;79;21402;-41
2021/04/09 01:43:12;;;;;;;15.00;9.50;;;;;;;3.03;64.64;101144.39;1782970;79;21154;-40
2021/04/09 01:45:39;;;;;;;13.35;9.40;;;;;;;3.04;64.62;101142.16;1766857;80;21171;-42
2021/04/09 01:48:08;;;;;;;10.72;8.48;;;;;;;3.04;64.69;101146.57;1772083;80;21150;-42
2021/04/09 01:50:36;;;;;;;11.65;8.35;;;;;;;3.06;64.72;101150.06;1773389;79;21608;-42
2021/04/09 01:53:04;;;;;;;13.15;8.18;;;;;;;3.07;64.75;101157.51;1778610;80;21145;-42
2021/04/09 01:55:35;;;;;;;9.68;8.03;;;;;;;3.07;64.80;101151.78;1733062;80;21676;-40
2021/04/09 01:58:03;;;;;;;10.38;8.10;;;;;;;3.08;64.92;101161.45;1733893;80;21158;-43
2021/04/09 02:00:31;;;;;;;10.60;7.78;;;;;;;3.10;64.94;101165.36;1737528;80;21124;-43
2021/04/09 02:02:59;;;;;;;11.55;8.05;;;;;;;3.09;64.87;101168.91;1729494;81;21648;-42
2021/04/09 02:05:28;;;;;;;10.25;8.33;;;;;;;3.08;64.83;101171.12;1716310;81;21590;-43
2021/04/09 02:07:56;;;;;;;11.35;7.90;;;;;;;3.07;64.83;101172.00;1735983;81;21153;-47
2021/04/09 02:10:26;;;;;;;9.98;7.58;;;;;;;3.05;64.87;101170.73;1744075;81;21228;-42
2021/04/09 02:12:53;;;;;;;10.90;9.03;;;;;;;3.06;64.86;101176.41;1716019;81;21184;-42
2021/04/09 02:15:24;;;;;;;12.33;9.30;;;;;;;3.04;64.86;101180.38;1742291;81;21193;-44
2021/04/09 02:17:52;;;;;;;12.45;9.45;;;;;;;3.01;64.78;101184.39;1740850;81;21242;-40
2021/04/09 02:20:21;;;;;;;12.95;8.65;;;;;;;2.99;64.83;101182.67;1742069;81;21125;-43
2021/04/09 02:22:50;;;;;;;13.13;10.08;;;;;;;2.96;64.89;101186.23;1737190;81;21153;-40
2021/04/09 02:25:20;;;;;;;12.25;9.48;;;;;;;2.96;64.87;101191.95;1734976;81;21182;-39
2021/04/09 02:27:50;;;;;;;14.77;9.20;;;;;;;2.93;64.83;101188.92;1746035;80;21141;-41
2021/04/09 02:30:21;;;;;;;9.60;7.78;;;;;;;2.90;64.81;101190.71;1697048;83;21613;-38
2021/04/09 02:32:50;;;;;;;9.30;7.83;;;;;;;2.85;64.70;101189.49;1679865;84;21650;-40
2021/04/09 02:35:19;;;;;;;9.85;7.90;;;;;;;2.79;64.67;101193.52;1678150;84;21166;-39
2021/04/09 02:37:49;;;;;;;9.50;7.75;;;;;;;2.75;64.83;101191.39;1687245;83;21166;-39
2021/04/09 02:40:22;;;;;;;12.13;9.05;;;;;;;2.71;65.02;101198.91;1676075;84;21158;-40
2021/04/09 02:42:51;;;;;;;10.18;8.15;;;;;;;2.68;65.11;101202.91;1668525;84;21198;-40
2021/04/09 02:45:21;;;;;;;10.82;7.60;;;;;;;2.66;65.13;101206.00;1712245;83;21144;-41
2021/04/09 02:47:49;;;;;;;12.30;8.40;;;;;;;2.66;65.18;101215.22;1701750;83;21152;-41
2021/04/09 02:50:32;;;;;;;10.68;8.03;;;;;;;2.64;65.34;101210.41;1668188;83;21165;-42
2021/04/09 02:53:03;;;;;;;11.80;8.75;;;;;;;2.63;65.42;101214.41;1678459;82;21910;-42
2021/04/09 02:55:35;;;;;;;10.80;7.08;;;;;;;2.60;65.56;101220.14;1685331;83;21598;-40
2021/04/09 02:58:04;;;;;;;11.35;7.60;;;;;;;2.57;65.74;101224.14;1687801;83;21193;-40
2021/04/09 03:00:33;;;;;;;13.45;9.00;;;;;;;2.56;65.84;101225.01;1688737;83;21209;-41
2021/04/09 03:03:01;;;;;;;10.40;8.13;;;;;;;2.56;65.88;101223.69;1664154;83;21192;-40
2021/04/09 03:05:29;;;;;;;10.50;8.40;;;;;;;2.55;65.88;101232.95;1690130;83;21632;-40
2021/04/09 03:07:59;;;;;;;9.18;8.15;;;;;;;2.53;65.94;101234.27;1692198;83;21176;-40
2021/04/09 03:10:26;;;;;;;9.70;7.30;;;;;;;2.52;65.97;101234.28;1686112;82;21201;-41
2021/04/09 03:12:54;;;;;;;10.28;8.35;;;;;;;2.51;66.00;101236.05;1696031;83;21229;-41
2021/04/09 03:15:25;;;;;;;12.82;9.25;;;;;;;2.49;66.00;101235.19;1684956;83;21190;-40
2021/04/09 03:18:05;;;;;;;10.82;9.15;;;;;;;2.47;66.01;101244.00;1691218;83;21166;-43
2021/04/09 03:20:32;;;;;;;11.15;8.05;;;;;;;2.44;66.13;101248.00;1688210;83;21189;-41
2021/04/09 03:23:00;;;;;;;11.03;8.70;;;;;;;2.40;66.28;101255.53;1690018;83;21148;-42
2021/04/09 03:25:28;;;;;;;11.88;9.10;;;;;;;2.36;66.52;101259.50;1687954;83;21185;-42
2021/04/09 03:27:56;;;;;;;12.33;9.13;;;;;;;2.32;66.68;101265.70;1695374;82;21579;-41
2021/04/09 03:30:24;;;;;;;12.25;10.15;;;;;;;2.30;66.87;101266.62;1680666;83;21180;-41
2021/04/09 03:32:51;;;;;;;10.90;9.20;;;;;;;2.29;67.07;101275.38;1685792;82;21166;-41
2021/04/09 03:35:20;;;;;;;11.00;8.95;;;;;;;2.32;67.21;101282.81;1691002;83;21152;-41
2021/04/09 03:37:48;;;;;;;9.98;7.97;;;;;;;2.34;67.25;101285.41;1682166;83;21692;-43
2021/04/09 03:40:16;;;;;;;10.98;8.73;;;;;;;2.37;67.31;101290.67;1683533;83;21164;-42
2021/04/09 03:42:44;;;;;;;14.00;8.90;;;;;;;2.39;67.26;101286.23;1686116;83;21137;-40
2021/04/09 03:45:12;;;;;;;13.32;8.05;;;;;;;2.40;67.19;101297.20;1710170;81;21155;-41
2021/04/09 03:47:41;;;;;;;11.85;8.98;;;;;;;2.41;67.17;101304.20;1700054;82;21189;-40
2021/04/09 03:50:09;;;;;;;12.43;9.35;;;;;;;2.40;67.07;101299.84;1713281;81;21157;-40
2021/04/09 03:52:38;;;;;;;10.80;8.88;;;;;;;2.41;67.10;101309.47;1676200;83;21160;-41
2021/04/09 03:55:09;;;;;;;11.70;9.40;;;;;;;2.42;67.17;101311.23;1691159;83;21201;-41
2021/04/09 03:57:36;;;;;;;10.75;8.73;;;;;;;2.43;67.34;101318.67;1676868;84;21176;-41
2021/04/09 04:00:06;;;;;;;12.20;9.43;;;;;;;2.43;67.51;101317.36;1675179;83;21208;-43
2021/04/09 04:02:33;;;;;;;13.50;9.63;;;;;;;2.43;67.67;101323.49;1705889;83;21557;-43
2021/04/09 04:05:02;;;;;;;13.05;9.15;;;;;;;2.45;67.71;101328.75;1666833;84;21158;-41
2021/04/09 04:07:31;;;;;;;11.05;9.23;;;;;;;2.45;67.83;101328.75;1683177;83;21618;-43
2021/04/09 04:09:59;;;;;;;12.98;9.43;;;;;;;2.46;67.92;101325.22;1691863;83;21514;-43
2021/04/09 04:12:27;;;;;;;28.17;21.62;;;;;;;2.48;68.03;101331.34;1704261;82;21150;-44
2021/04/09 04:14:56;;;;;;;16.25;12.43;;;;;;;2.48;68.23;101330.89;1678537;83;21169;-41
2021/04/09 04:17:23;;;;;;;15.95;10.78;;;;;;;2.50;68.42;101336.16;1671665;83;21561;-39
2021/04/09 04:19:51;;;;;;;11.93;9.63;;;;;;;2.51;68.51;101340.06;1707884;81;21146;-40
2021/04/09 04:22:19;;;;;;;12.80;10.40;;;;;;;2.53;68.63;101342.24;1682453;83;21190;-42
2021/04/09 04:24:46;;;;;;;12.18;8.98;;;;;;;2.55;68.74;101348.82;1704505;81;21185;-40
2021/04/09 04:27:14;;;;;;;13.90;10.20;;;;;;;2.57;68.94;101349.23;1671097;84;21681;-43
2021/04/09 04:29:42;;;;;;;11.45;9.48;;;;;;;2.60;69.13;101354.45;1675414;84;21241;-43
2021/04/09 04:32:10;;;;;;;10.88;9.38;;;;;;;2.64;69.28;101357.91;1673677;83;21177;-44
2021/04/09 04:34:38;;;;;;;12.20;8.70;;;;;;;2.66;69.26;101371.94;1713887;82;21158;-41
2021/04/09 04:37:07;;;;;;;11.70;9.53;;;;;;;2.68;69.26;101371.94;1687030;83;21558;-42
2021/04/09 04:39:35;;;;;;;13.08;9.60;;;;;;;2.70;69.39;101377.61;1678180;84;21226;-40
2021/04/09 04:42:03;;;;;;;14.55;9.80;;;;;;;2.73;69.44;101381.97;1709331;82;21173;-40
2021/04/09 04:44:31;;;;;;;11.08;9.00;;;;;;;2.77;69.50;101374.44;1692491;83;21201;-44
2021/04/09 04:46:58;;;;;;;11.73;9.63;;;;;;;2.80;69.59;101384.52;1687726;83;21625;-41
2021/04/09 04:49:26;;;;;;;10.88;9.20;;;;;;;2.85;69.65;101380.92;1682556;84;21261;-41
2021/04/09 04:51:54;;;;;;;13.03;9.83;;;;;;;2.89;69.68;101381.33;1682251;84;21497;-43
2021/04/09 04:54:21;;;;;;;13.83;10.05;;;;;;;2.92;69.71;101383.91;1694389;84;21555;-41
2021/04/09 04:56:49;;;;;;;13.08;10.82;;;;;;;2.96;69.75;101390.91;1678973;84;21188;-42
2021/04/09 04:59:17;;;;;;;12.58;9.93;;;;;;;2.99;69.76;101385.13;1684230;84;21725;-42
2021/04/09 05:01:46;;;;;;;16.30;10.15;;;;;;;3.03;69.69;101388.17;1687020;83;21173;-43
2021/04/09 05:04:14;;;;;;;15.98;11.40;;;;;;;3.08;69.62;101389.89;1686893;84;21121;-44
2021/04/09 05:06:42;;;;;;;14.25;11.20;;;;;;;3.10;69.54;101394.24;1682747;84;21205;-43
2021/04/09 05:09:10;;;;;;;15.88;12.25;;;;;;;3.15;69.50;101391.09;1701542;83;21270;-45
2021/04/09 05:11:39;;;;;;;14.07;11.73;;;;;;;3.21;69.53;101394.09;1686696;83;21792;-44
2021/04/09 05:14:06;;;;;;;14.75;11.83;;;;;;;3.27;69.47;101399.72;1699090;83;21601;-44
2021/04/09 05:16:34;;;;;;;13.32;11.50;;;;;;;3.30;69.45;101399.67;1689244;83;21189;-44
2021/04/09 05:19:02;;;;;;;14.25;11.18;;;;;;;3.33;69.34;101408.42;1688100;84;21201;-42
2021/04/09 05:21:32;;;;;;;13.88;11.45;;;;;;;3.34;69.25;101404.88;1684806;83;21163;-42
2021/04/09 05:23:59;;;;;;;16.67;11.90;;;;;;;3.39;69.26;101402.19;1672092;84;21192;-42
2021/04/09 05:26:27;;;;;;;14.05;10.48;;;;;;;3.41;69.21;101408.31;1686894;83;21165;-43
2021/04/09 05:28:55;;;;;;;13.98;10.72;;;;;;;3.46;69.21;101410.44;1680312;84;21196;-45
2021/04/09 05:31:25;;;;;;;14.10;11.03;;;;;;;3.53;69.18;101417.80;1687210;83;21161;-42
2021/04/09 05:33:53;;;;;;;14.00;12.10;;;;;;;3.58;69.13;101422.56;1704777;82;21185;-41
2021/04/09 05:36:21;;;;;;;14.35;11.97;;;;;;;3.64;69.13;101421.16;1675075;83;21164;-44
2021/04/09 05:38:49;;;;;;;14.87;12.30;;;;;;;3.68;69.21;101418.47;1686064;83;21126;-42
2021/04/09 05:41:19;;;;;;;13.00;10.80;;;;;;;3.74;69.20;101419.27;1682654;83;21161;-42
2021/04/09 05:43:46;;;;;;;16.17;11.33;;;;;;;3.77;69.18;101421.39;1701116;82;21247;-43
2021/04/09 05:46:15;;;;;;;14.13;11.65;;;;;;;3.84;69.17;101419.09;1714493;83;21523;-43
2021/04/09 05:48:43;;;;;;;12.33;10.63;;;;;;;3.93;69.11;101422.05;1688861;82;21201;-46
2021/04/09 05:51:13;;;;;;;18.62;12.80;;;;;;;4.02;68.90;101429.80;1674956;83;21200;-40
2021/04/09 05:53:42;;;;;;;14.60;11.40;;;;;;;4.11;68.78;101430.97;1672846;83;21132;-40
2021/04/09 05:56:10;;;;;;;17.42;13.98;;;;;;;4.17;68.67;101426.03;1672747;84;21162;-44
2021/04/09 05:58:38;;;;;;;15.78;12.45;;;;;;;4.25;68.20;101428.53;1692667;82;21628;-44
2021/04/09 06:01:05;;;;;;;17.65;12.43;;;;;;;4.29;67.90;101431.56;1687328;83;21800;-43
2021/04/09 06:03:34;;;;;;;14.47;12.00;;;;;;;4.32;67.75;101437.64;1693323;83;21645;-46
2021/04/09 06:06:01;;;;;;;13.48;10.95;;;;;;;4.34;67.63;101437.17;1685635;84;22413;-45
2021/04/09 06:08:29;;;;;;;14.10;11.80;;;;;;;4.40;67.47;101437.96;1680684;84;21186;-43
2021/04/09 06:10:57;;;;;;;13.30;11.85;;;;;;;4.47;66.99;101439.60;1682278;83;21604;-42
2021/04/09 06:13:24;;;;;;;15.32;11.60;;;;;;;4.54;66.76;101439.46;1687117;83;21185;-45
2021/04/09 06:15:52;;;;;;;15.75;12.47;;;;;;;4.64;66.49;101442.81;1693328;83;21146;-42
2021/04/09 06:18:19;;;;;;;15.85;11.57;;;;;;;4.69;66.38;101446.23;1679534;83;21182;-47
2021/04/09 06:20:49;;;;;;;13.85;11.57;;;;;;;4.75;66.02;101443.46;1679220;83;21302;-46
2021/04/09 06:23:19;;;;;;;13.05;10.72;;;;;;;4.83;65.96;101442.45;1681861;82;21180;-47
2021/04/09 06:25:48;;;;;;;14.35;10.78;;;;;;;4.95;65.88;101441.75;1655659;84;21205;-45
2021/04/09 06:28:17;;;;;;;13.93;11.28;;;;;;;5.05;65.63;101441.12;1691122;83;21342;-49
2021/04/09 06:30:45;;;;;;;14.05;11.70;;;;;;;5.18;65.28;101444.38;1695339;82;21223;-46
2021/04/09 06:33:13;;;;;;;16.95;13.20;;;;;;;5.27;65.04;101446.84;1684001;83;21199;-46
2021/04/09 06:35:41;;;;;;;13.20;11.60;;;;;;;5.38;64.87;101450.56;1680593;83;21188;-44
2021/04/09 06:38:09;;;;;;;15.85;11.38;;;;;;;5.48;64.85;101448.14;1688427;83;21177;-45
2021/04/09 06:40:38;;;;;;;14.23;11.78;;;;;;;5.59;64.39;101446.56;1694231;84;21188;-43
2021/04/09 06:43:05;;;;;;;14.23;11.93;;;;;;;5.69;64.11;101454.71;1685510;84;21200;-44
2021/04/09 06:45:35;;;;;;;16.10;11.85;;;;;;;5.78;63.56;101447.89;1687543;83;21163;-42
2021/04/09 06:48:05;;;;;;;14.98;12.55;;;;;;;5.85;63.15;101449.95;1688108;84;21180;-47
2021/04/09 06:50:33;;;;;;;17.35;12.60;;;;;;;5.90;62.74;101454.69;1679891;84;21607;-49
2021/04/09 06:53:05;;;;;;;14.45;11.88;;;;;;;5.94;62.22;101456.83;1687168;83;21176;-48
2021/04/09 06:55:43;;;;;;;15.48;12.18;;;;;;;5.96;62.30;101459.86;1685358;82;21769;-47
2021/04/09 06:58:15;;;;;;;15.68;12.37;;;;;;;6.02;62.04;101459.73;1649404;84;21182;-44
2021/04/09 07:00:43;;;;;;;19.27;13.28;;;;;;;6.08;61.75;101457.37;1682285;84;21712;-45
2021/04/09 07:03:10;;;;;;;17.55;13.83;;;;;;;6.12;61.68;101459.02;1712868;82;21182;-46
2021/04/09 07:05:38;;;;;;;15.93;12.88;;;;;;;6.19;61.21;101463.73;1654474;84;21181;-44
2021/04/09 07:08:06;;;;;;;15.13;13.08;;;;;;;6.22;60.74;101459.67;1677345;84;21601;-45
2021/04/09 07:10:34;;;;;;;14.23;12.07;;;;;;;6.25;60.54;101459.16;1678043;84;21153;-44
2021/04/09 07:13:07;;;;;;;17.20;12.95;;;;;;;6.29;60.49;101464.77;1683527;83;21535;-45
2021/04/09 07:15:43;;;;;;;16.30;13.38;;;;;;;6.33;60.28;101464.26;1708374;82;21598;-46
2021/04/09 07:18:15;;;;;;;15.53;11.90;;;;;;;6.38;60.08;101465.02;1708273;82;21558;-42
2021/04/09 07:20:44;;;;;;;16.55;12.20;;;;;;;6.44;60.27;101468.81;1716465;82;21211;-47
2021/04/09 07:23:13;;;;;;;13.75;11.95;;;;;;;6.54;60.04;101473.89;1703681;81;21177;-47
2021/04/09 07:28:40;;;;;;;13.83;11.45;;;;;;;6.76;58.24;101465.78;1795695;78;22899;-49
2021/04/09 07:31:08;;;;;;;14.75;12.53;;;;;;;6.77;57.74;101466.19;1780531;79;21144;-47
2021/04/09 07:33:35;;;;;;;13.55;11.68;;;;;;;6.80;57.35;101470.53;1776583;78;21149;-43
2021/04/09 07:36:14;;;;;;;16.67;12.60;;;;;;;6.81;56.30;101469.64;1743862;80;21213;-48
2021/04/09 07:38:56;;;;;;;13.80;10.25;;;;;;;6.81;55.93;101468.31;1765994;80;21156;-43
2021/04/09 07:41:29;;;;;;;14.03;11.15;;;;;;;6.86;55.24;101472.57;1758562;79;21364;-45
2021/04/09 07:43:57;;;;;;;20.75;12.13;;;;;;;6.90;55.44;101478.65;1772220;79;21396;-47
2021/04/09 07:46:28;;;;;;;13.32;11.50;;;;;;;6.92;55.07;101478.16;1741538;80;21644;-47
2021/04/09 07:49:05;;;;;;;11.40;9.18;;;;;;;6.91;55.58;101481.27;1768842;78;21193;-42
2021/04/09 07:51:33;;;;;;;11.95;9.95;;;;;;;6.96;54.81;101484.27;1771198;78;21173;-43
2021/04/09 07:54:10;;;;;;;12.33;8.90;;;;;;;7.02;54.07;101478.31;1711241;81;21168;-41
2021/04/09 07:56:45;;;;;;;10.55;8.40;;;;;;;7.07;53.72;101472.42;1729861;81;21640;-44
2021/04/09 07:59:13;;;;;;;12.47;10.38;;;;;;;7.09;52.42;101473.72;1732556;81;21161;-48
2021/04/09 08:01:47;;;;;;;12.73;9.58;;;;;;;7.08;53.06;101478.16;1692128;82;21201;-45
2021/04/09 08:04:15;;;;;;;12.33;10.08;;;;;;;7.13;52.89;101475.34;1712258;81;21162;-44
2021/04/09 08:06:43;;;;;;;13.28;11.22;;;;;;;7.19;53.37;101475.19;1715282;81;21173;-42
2021/04/09 08:09:10;;;;;;;14.43;8.88;;;;;;;7.27;53.37;101478.95;1693335;81;21137;-42
2021/04/09 08:11:41;;;;;;;11.15;9.55;;;;;;;7.32;52.91;101475.70;1714516;81;21697;-43
2021/04/09 08:14:24;;;;;;;8.83;7.62;;;;;;;7.33;52.38;101480.08;1718225;81;22108;-43
2021/04/09 08:16:54;;;;;;;12.18;9.65;;;;;;;7.32;52.55;101480.55;1706212;83;21169;-47
2021/04/09 08:19:26;;;;;;;9.48;8.43;;;;;;;7.36;51.73;101476.91;1710908;81;21183;-39
2021/04/09 08:21:58;;;;;;;11.75;9.13;;;;;;;7.43;51.49;101479.36;1687911;82;21188;-41
2021/04/09 08:27:07;;;;;;;8.63;7.72;;;;;;;7.56;51.21;101468.34;1804602;78;23716;-45
2021/04/09 08:29:35;;;;;;;9.15;7.05;;;;;;;7.61;50.51;101472.19;1777338;79;21133;-41
2021/04/09 08:32:04;;;;;;;12.33;10.55;;;;;;;7.72;49.49;101469.20;1748758;80;21101;-44
2021/04/09 08:34:33;;;;;;;11.55;8.58;;;;;;;7.81;48.38;101464.91;1778341;80;21554;-45
2021/04/09 08:37:02;;;;;;;10.75;8.90;;;;;;;7.90;47.69;101472.59;1774388;78;21145;-47
2021/04/09 08:39:32;;;;;;;10.43;7.65;;;;;;;7.96;47.18;101467.11;1780473;79;21134;-47
2021/04/09 08:42:00;;;;;;;10.23;8.15;;;;;;;8.00;47.58;101463.41;1779129;79;21510;-47
2021/04/09 08:44:27;;;;;;;9.70;6.85;;;;;;;8.05;47.67;101462.41;1775706;79;21144;-46
2021/04/09 08:46:55;;;;;;;7.87;7.08;;;;;;;8.11;47.74;101461.73;1776527;79;21146;-40
2021/04/09 08:49:23;;;;;;;11.30;8.20;;;;;;;8.20;46.75;101462.77;1770954;79;21714;-42
2021/04/09 08:51:51;;;;;;;10.25;6.92;;;;;;;8.26;46.80;101465.67;1773986;79;21145;-43
2021/04/09 08:54:29;;;;;;;11.50;8.60;;;;;;;8.27;46.09;101463.91;1772817;79;21110;-43
2021/04/09 08:56:59;;;;;;;9.13;7.10;;;;;;;8.26;46.59;101463.48;1781676;80;21291;-45
2021/04/09 08:59:47;;;;;;;11.60;7.67;;;;;;;8.26;46.66;101467.00;1780766;79;21149;-47
2021/04/09 09:02:24;;;;;;;9.78;7.53;;;;;;;8.27;47.22;101471.88;1749887;80;21137;-45
2021/04/09 09:05:13;;;;;;;8.90;7.35;;;;;;;8.24;45.43;101471.05;1720275;82;21570;-47
2021/04/09 09:08:00;;;;;;;8.08;6.97;;;;;;;8.15;44.94;101472.67;1748937;80;21553;-45
2021/04/09 09:10:42;;;;;;;8.93;7.03;;;;;;;8.10;44.41;101467.97;1749067;80;21165;-44
2021/04/09 09:13:20;;;;;;;9.78;8.00;;;;;;;8.08;44.09;101473.79;1719195;81;21129;-46
2021/04/09 09:15:56;;;;;;;9.85;6.40;;;;;;;8.09;44.30;101474.66;1716831;82;21676;-45
2021/04/09 09:18:33;;;;;;;8.13;6.20;;;;;;;8.07;44.11;101474.72;1718417;81;21164;-43
2021/04/09 09:21:20;;;;;;;7.85;6.37;;;;;;;8.08;43.82;101480.43;1746148;81;21145;-47
2021/04/09 09:24:01;;;;;;;7.60;5.75;;;;;;;8.17;43.17;101477.95;1723814;82;21581;-43
2021/04/09 09:26:43;;;;;;;9.00;5.92;;;;;;;8.17;43.17;101477.95;1709617;82;21185;-46
2021/04/09 09:29:29;;;;;;;7.60;5.45;;;;;;;8.18;42.18;101477.02;1702599;82;21200;-41
2021/04/09 09:32:07;;;;;;;7.70;5.80;;;;;;;8.19;41.05;101479.64;1706917;83;21284;-46
2021/04/09 09:34:41;;;;;;;7.53;5.62;;;;;;;8.23;41.33;101479.92;1700442;82;21480;-42
2021/04/09 09:37:46;;;;;;;;;;;;;;;;;;;;;
2021/04/09 09:40:18;;;;;;;10.38;5.72;;;;;;;8.41;41.73;101476.28;1795991;78;23474;-42
2021/04/09 09:42:59;;;;;;;6.92;5.20;;;;;;;8.44;40.74;101477.50;1721607;80;21153;-47
2021/04/09 09:45:35;;;;;;;11.78;7.40;;;;;;;8.49;40.51;101478.68;1779138;79;21483;-44
2021/04/09 09:48:16;;;;;;;8.48;6.75;;;;;;;8.47;41.16;101480.52;1776676;80;21161;-46
2021/04/09 09:50:44;;;;;;;7.63;5.90;;;;;;;8.41;41.12;101488.25;1774240;79;21161;-48
2021/04/09 09:53:12;;;;;;;10.35;6.22;;;;;;;8.34;41.23;101488.00;1745728;80;21471;-42
2021/04/09 09:55:42;;;;;;;9.08;5.45;;;;;;;8.34;41.23;101488.00;1775198;79;21514;-46
2021/04/09 09:58:23;;;;;;;6.87;5.27;;;;;;;8.38;40.28;101473.23;1708802;81;21194;-41
2021/04/09 10:01:00;;;;;;;9.13;5.90;;;;;;;8.45;40.48;101479.27;1689704;83;21561;-43
2021/04/09 10:03:32;;;;;;;5.90;5.10;;;;;;;8.51;39.85;101483.02;1690134;83;21173;-45
2021/04/09 10:06:01;;;;;;;;;;;;;;;8.51;40.01;101475.52;1689210;83;21157;-41
2021/04/09 10:08:31;;;;;;;7.03;5.35;;;;;;;8.53;39.30;101482.52;1697521;83;20166;-43
2021/04/09 10:11:02;;;;;;;6.20;4.95;;;;;;;8.54;39.17;101471.41;1718057;82;21192;-44
2021/04/09 10:13:38;;;;;;;5.70;4.72;;;;;;;8.58;39.06;101477.05;1705097;82;21149;-43
2021/04/09 10:16:18;;;;;;;6.75;4.95;;;;;;;8.62;39.29;101474.70;1723135;81;21981;-42
2021/04/09 10:18:53;;;;;;;6.12;4.55;;;;;;;8.66;38.89;101473.19;1696811;82;21165;-44
2021/04/09 10:21:33;;;;;;;6.62;4.90;;;;;;;8.73;38.81;101475.18;1718380;82;21728;-42
2021/04/09 10:24:12;;;;;;;8.33;4.70;;;;;;;8.73;38.81;101475.18;1702261;82;21168;-45
2021/04/09 10:26:44;;;;;;;5.15;3.55;;;;;;;8.76;37.72;101476.40;1691116;83;21690;-42
2021/04/09 10:29:34;;;;;;;6.75;4.47;;;;;;;8.74;36.72;101475.58;1705822;82;21182;-43
2021/04/09 10:32:04;;;;;;;5.25;2.95;;;;;;;8.73;35.15;101483.16;1720408;81;21174;-40
2021/04/09 10:34:33;;;;;;;5.78;2.87;;;;;;;8.70;34.36;101479.28;1718229;81;21142;-45
2021/04/09 10:37:03;;;;;;;6.55;4.15;;;;;;;8.68;34.44;101474.47;1663012;84;21158;-43
2021/04/09 10:39:38;;;;;;;5.40;4.00;;;;;;;8.69;35.45;101478.00;1685206;83;21181;-44
2021/04/09 10:42:15;;;;;;;7.20;5.20;;;;;;;8.68;36.33;101474.47;1745238;81;21149;-42
2021/04/09 10:44:50;;;;;;;7.28;5.50;;;;;;;8.81;36.68;101471.78;1724158;81;21291;-45
2021/04/09 10:47:19;;;;;;;8.50;6.20;;;;;;;8.81;36.68;101471.78;1742482;81;21184;-47
2021/04/09 10:49:50;;;;;;;15.08;6.25;;;;;;;8.87;38.42;101476.91;1747985;80;21117;-42
2021/04/09 10:52:20;;;;;;;7.85;5.67;;;;;;;8.93;37.80;101470.48;1743890;81;21660;-44
2021/04/09 10:54:51;;;;;;;5.95;4.90;;;;;;;9.00;37.77;101464.49;1746777;81;21153;-48
2021/04/09 10:57:21;;;;;;;7.17;5.33;;;;;;;9.06;38.51;101461.13;1745012;80;21143;-44
2021/04/09 10:59:50;;;;;;;7.25;5.60;;;;;;;9.16;37.73;101467.45;1717096;81;21771;-42
2021/04/09 11:02:24;;;;;;;11.07;6.20;;;;;;;9.20;37.53;101465.95;1747513;81;21267;-50
2021/04/09 11:04:57;;;;;;;8.08;5.72;;;;;;;9.22;37.15;101457.89;1744712;80;21315;-49
2021/04/09 11:07:45;;;;;;;7.22;5.35;;;;;;;9.28;37.63;101461.67;1714577;81;21163;-48
2021/04/09 11:10:18;;;;;;;9.28;6.08;;;;;;;9.40;38.18;101458.55;1746582;80;21142;-48
2021/04/09 11:12:47;;;;;;;6.22;4.97;;;;;;;9.54;37.42;101462.00;1736738;80;21279;-48
2021/04/09 11:15:16;;;;;;;7.28;5.45;;;;;;;9.57;37.12;101459.21;1746923;81;21339;-50
2021/04/09 11:17:56;;;;;;;9.55;6.08;;;;;;;9.52;36.80;101461.19;1743289;80;21792;-44
2021/04/09 11:20:38;;;;;;;9.03;5.22;;;;;;;9.48;36.84;101458.25;1745826;81;21307;-50
2021/04/09 11:23:44;;;;;;;6.97;5.00;;;;;;;9.47;36.90;101462.69;1749168;80;21124;-46
2021/04/09 11:26:50;;;;;;;5.70;4.55;;;;;;;9.42;36.33;101459.80;1533120;90;21210;-46
2021/04/09 11:29:30;;;;;;;6.10;4.87;;;;;;;9.37;36.18;101450.66;1797692;78;22946;-41
2021/04/09 11:32:19;;;;;;;5.87;4.33;;;;;;;9.30;36.48;101457.17;1775125;79;21133;-40
2021/04/09 11:34:50;;;;;;;5.15;4.00;;;;;;;9.33;36.91;101458.84;1767470;79;21588;-43
2021/04/09 11:37:19;;;;;;;6.55;4.83;;;;;;;9.39;37.48;101457.27;1773888;79;21153;-40
2021/04/09 11:39:55;;;;;;;7.15;4.87;;;;;;;9.47;37.02;101458.69;1770567;79;21110;-41
2021/04/09 11:42:28;;;;;;;6.03;4.83;;;;;;;9.53;35.98;101462.47;1775004;79;21121;-48
2021/04/09 11:44:56;;;;;;;6.58;4.45;;;;;;;9.54;36.01;101453.54;1772122;79;21290;-45
2021/04/09 11:47:35;;;;;;;6.00;4.55;;;;;;;9.59;36.63;101457.83;1769304;79;21287;-42
2021/04/09 11:50:10;;;;;;;4.92;4.12;;;;;;;9.63;36.86;101448.80;1768333;79;21286;-45
2021/04/09 11:52:49;;;;;;;6.22;4.30;;;;;;;9.72;36.99;101443.09;1764336;79;21664;-43